Time;durP1;ratioP1;P1;durP2;ratioP2;P2;SDS_P1;SDS_P2;PMS_P1;PMS_P2;Temp;Humidity;BMP_temperature;BMP_pressure;BME280_temperature;BME280_humidity;BME280_pressure;Samples;Min_cycle;Max_cycle;Signal;HPM_P1;HPM_P2
2022/12/17 13:06:09;;;;;;;37.22;29.80;;;7.40;85.10;;;;;;5031419;28;20103;-72
2022/12/17 13:08:35;;;;;;;40.35;31.52;;;7.40;85.00;;;;;;5030842;28;20122;-72
2022/12/17 13:11:28;;;;;;;38.88;30.35;;;7.30;85.30;;;;;;5023588;28;20429;-71
2022/12/17 13:13:59;;;;;;;39.50;30.02;;;7.20;85.10;;;;;;5022542;28;20063;-70
2022/12/17 13:16:57;;;;;;;38.47;29.48;;;7.10;86.80;;;;;;5031452;28;20036;-70
2022/12/17 13:19:35;;;;;;;37.40;29.65;;;7.20;86.90;;;;;;4979152;28;20482;-70
2022/12/17 13:22:14;;;;;;;40.78;31.00;;;7.10;86.90;;;;;;5020536;28;20078;-70
2022/12/17 13:24:45;;;;;;;38.42;30.20;;;7.10;87.30;;;;;;5026760;28;20045;-70
2022/12/17 13:27:32;;;;;;;37.88;29.58;;;7.20;86.80;;;;;;5021649;28;20076;-69
2022/12/17 13:30:20;;;;;;;40.25;31.00;;;7.00;86.70;;;;;;5020770;28;20433;-70
2022/12/17 13:33:21;;;;;;;42.53;32.08;;;6.80;88.10;;;;;;5026572;28;20025;-70
2022/12/17 13:36:06;;;;;;;42.47;30.70;;;7.10;87.20;;;;;;5021005;28;20487;-70
2022/12/17 13:38:58;;;;;;;38.70;30.25;;;7.00;86.80;;;;;;5023976;28;20553;-71
2022/12/17 13:41:31;;;;;;;;;;;7.20;85.80;;;;;;5019885;28;20021;-70
2022/12/17 13:44:01;;;;;;;44.67;31.60;;;7.40;85.60;;;;;;5019969;28;19925;-71
2022/12/17 13:46:39;;;;;;;38.90;29.42;;;7.50;84.40;;;;;;5020381;28;20029;-71
2022/12/17 13:49:14;;;;;;;41.60;31.00;;;7.20;84.90;;;;;;5023530;28;20048;-71
2022/12/17 13:51:40;;;;;;;37.65;29.35;;;7.10;85.50;;;;;;5018386;28;20215;-70
2022/12/17 13:54:17;;;;;;;41.05;32.55;;;7.00;86.00;;;;;;5023267;28;20505;-71
2022/12/17 13:56:43;;;;;;;46.10;33.38;;;7.10;85.90;;;;;;5015715;28;20026;-70
2022/12/17 13:59:19;;;;;;;45.58;33.65;;;7.20;85.40;;;;;;5025683;28;20061;-70
2022/12/17 14:01:47;;;;;;;43.03;33.17;;;7.40;83.60;;;;;;5030712;28;20039;-70
2022/12/17 14:04:24;;;;;;;48.95;31.63;;;7.40;84.40;;;;;;5027441;28;20026;-70
2022/12/17 14:06:51;;;;;;;50.13;35.53;;;7.00;85.20;;;;;;5017371;28;20057;-69
2022/12/17 14:09:19;;;;;;;45.05;34.13;;;7.20;84.60;;;;;;5014673;28;20033;-70
2022/12/17 14:14:42;;;;;;;46.53;34.25;;;7.00;87.50;;;;;;5012835;28;20041;-70
2022/12/17 14:17:20;;;;;;;42.17;33.88;;;7.30;83.90;;;;;;5018819;28;20037;-70
2022/12/17 14:19:49;;;;;;;38.88;30.90;;;7.50;83.00;;;;;;5018075;28;20026;-71
2022/12/17 14:22:32;;;;;;;44.08;31.73;;;7.40;83.10;;;;;;5021441;28;20047;-73
2022/12/17 14:24:59;;;;;;;42.90;31.42;;;7.30;83.30;;;;;;5024274;28;20111;-73
2022/12/17 14:27:35;;;;;;;44.22;32.42;;;7.50;82.50;;;;;;5015119;28;20097;-72
2022/12/17 14:30:18;;;;;;;48.25;33.50;;;7.50;82.00;;;;;;5024515;28;20065;-74
2022/12/17 14:32:44;;;;;;;43.45;32.95;;;7.50;81.80;;;;;;5025114;28;20053;-73
2022/12/17 14:35:28;;;;;;;42.13;32.25;;;7.50;81.80;;;;;;5025927;28;20099;-75
2022/12/17 14:37:54;;;;;;;43.08;32.72;;;7.50;82.40;;;;;;5028003;28;20036;-74
2022/12/17 14:40:22;;;;;;;43.50;32.67;;;7.50;81.60;;;;;;5061195;28;20021;-74
2022/12/17 14:42:48;;;;;;;46.58;32.65;;;7.40;82.50;;;;;;5031688;28;20029;-74
2022/12/17 14:45:13;;;;;;;45.42;32.15;;;6.80;84.40;;;;;;5028704;28;20464;-73
2022/12/17 14:47:39;;;;;;;47.70;34.00;;;7.00;84.60;;;;;;5019533;28;20489;-73
2022/12/17 14:50:11;;;;;;;47.97;35.03;;;7.20;84.70;;;;;;5018663;28;20025;-73
2022/12/17 14:52:45;;;;;;;53.65;36.00;;;7.10;84.50;;;;;;5015774;28;20091;-73
2022/12/17 14:55:43;;;;;;;46.92;35.10;;;6.80;85.50;;;;;;5016415;28;20131;-73
2022/12/17 14:58:12;;;;;;;51.08;36.50;;;6.90;86.10;;;;;;5013775;28;20120;-73
2022/12/17 15:00:40;;;;;;;52.45;36.70;;;6.70;86.50;;;;;;5023352;28;20040;-73
2022/12/17 15:03:09;;;;;;;59.92;40.40;;;6.50;86.90;;;;;;5025624;28;20416;-74
2022/12/17 15:05:36;;;;;;;64.20;43.67;;;6.90;86.70;;;;;;5022636;28;20056;-74
2022/12/17 15:08:04;;;;;;;57.78;39.45;;;7.10;85.30;;;;;;5016453;28;20052;-76
2022/12/17 15:10:29;;;;;;;53.75;39.08;;;6.90;86.40;;;;;;5019216;28;20049;-74
2022/12/17 15:12:56;;;;;;;51.08;39.15;;;7.20;85.20;;;;;;5015890;28;20466;-75
2022/12/17 15:15:22;;;;;;;58.92;40.45;;;7.40;83.20;;;;;;5019659;28;20021;-75
2022/12/17 15:17:47;;;;;;;57.92;40.88;;;7.50;82.80;;;;;;5014523;28;20464;-75
2022/12/17 15:20:18;;;;;;;57.85;39.75;;;7.40;83.80;;;;;;5030031;28;20021;-74
2022/12/17 15:22:45;;;;;;;52.92;38.67;;;7.40;83.00;;;;;;5016251;28;20470;-75
2022/12/17 15:25:16;;;;;;;55.25;39.03;;;7.10;84.60;;;;;;5022128;28;20041;-75
2022/12/17 15:27:43;;;;;;;53.65;37.85;;;7.30;83.30;;;;;;5019963;28;20028;-76
2022/12/17 15:30:15;;;;;;;57.58;39.83;;;7.40;83.20;;;;;;5024379;28;20096;-76
2022/12/17 15:32:41;;;;;;;;;;;7.50;82.70;;;;;;5029108;28;20116;-75
2022/12/17 15:35:08;;;;;;;57.05;38.58;;;7.60;83.20;;;;;;5028508;28;20345;-76
2022/12/17 15:37:34;;;;;;;57.58;37.58;;;7.50;82.70;;;;;;5021821;28;20060;-76
2022/12/17 15:39:59;;;;;;;56.65;37.58;;;7.60;82.70;;;;;;5018295;28;20502;-74
2022/12/17 15:45:09;;;;;;;59.22;38.38;;;6.60;85.50;;;;;;5016587;28;20087;-74
2022/12/17 15:47:35;;;;;;;55.83;39.83;;;6.20;87.00;;;;;;5019402;28;20049;-74
2022/12/17 15:50:02;;;;;;;57.58;40.53;;;6.80;85.90;;;;;;5021850;28;20025;-73
2022/12/17 15:52:27;;;;;;;59.08;39.50;;;7.00;85.20;;;;;;5013986;28;20025;-74
2022/12/17 15:54:53;;;;;;;56.60;38.50;;;7.20;84.30;;;;;;5012116;28;20033;-73
2022/12/17 15:57:19;;;;;;;52.78;37.42;;;7.30;83.90;;;;;;5016704;28;20033;-74
2022/12/17 15:59:44;;;;;;;57.70;39.67;;;7.20;83.80;;;;;;5019656;28;20033;-74
2022/12/17 16:02:10;;;;;;;61.30;41.15;;;7.40;81.70;;;;;;5016801;28;20045;-72
2022/12/17 16:04:36;;;;;;;62.45;43.05;;;7.40;81.30;;;;;;5020365;28;20799;-72
2022/12/17 16:07:03;;;;;;;62.65;41.20;;;7.40;80.90;;;;;;5021477;28;20029;-72
2022/12/17 16:09:28;;;;;;;61.38;41.00;;;7.40;81.00;;;;;;5020139;28;20022;-72
2022/12/17 16:11:55;;;;;;;60.92;40.20;;;7.30;80.90;;;;;;5017234;28;20027;-72
2022/12/17 16:14:22;;;;;;;62.00;42.90;;;7.20;81.20;;;;;;5015628;28;20042;-72
2022/12/17 16:16:48;;;;;;;59.67;40.35;;;7.00;81.50;;;;;;5017274;28;20140;-72
2022/12/17 16:19:13;;;;;;;57.47;39.60;;;7.00;81.50;;;;;;5014827;28;20117;-74
2022/12/17 16:21:39;;;;;;;61.33;39.78;;;6.90;82.70;;;;;;5023971;28;20066;-73
2022/12/17 16:24:05;;;;;;;58.10;38.92;;;6.90;83.20;;;;;;5019370;28;20025;-72
2022/12/17 16:26:30;;;;;;;59.72;38.20;;;7.00;83.60;;;;;;5022650;28;20444;-72
2022/12/17 16:28:57;;;;;;;63.70;39.05;;;7.00;83.40;;;;;;5021696;28;20115;-73
2022/12/17 16:31:23;;;;;;;54.97;37.25;;;6.90;83.40;;;;;;5026002;28;20044;-72
2022/12/17 16:33:49;;;;;;;54.42;37.17;;;7.00;83.40;;;;;;5019235;28;20037;-71
2022/12/17 16:36:17;;;;;;;53.55;36.50;;;7.00;83.40;;;;;;5021495;28;20030;-71
2022/12/17 16:38:51;;;;;;;57.00;38.97;;;7.00;83.40;;;;;;5033161;28;20043;-71
2022/12/17 16:41:18;;;;;;;52.63;36.08;;;7.00;83.20;;;;;;5030432;28;20049;-72
2022/12/17 16:43:44;;;;;;;58.55;38.78;;;6.90;83.30;;;;;;5028617;28;20037;-72
2022/12/17 16:46:34;;;;;;;61.00;40.38;;;7.00;83.20;;;;;;5026145;28;20026;-72
2022/12/17 16:49:11;;;;;;;57.00;39.78;;;7.00;82.70;;;;;;5022291;28;20056;-72
2022/12/17 16:51:41;;;;;;;66.15;43.78;;;7.00;82.60;;;;;;5032355;28;20043;-71
2022/12/17 16:54:10;;;;;;;64.15;42.58;;;7.20;80.60;;;;;;5024320;28;20071;-71
2022/12/17 16:56:36;;;;;;;67.40;43.25;;;7.10;81.80;;;;;;5025009;28;20037;-71
2022/12/17 16:59:03;;;;;;;72.53;45.67;;;6.90;81.70;;;;;;5028334;28;20048;-72
2022/12/17 17:01:29;;;;;;;83.50;47.92;;;6.90;81.60;;;;;;5029646;28;20032;-71
2022/12/17 17:03:56;;;;;;;88.32;51.60;;;6.80;81.90;;;;;;5024780;28;20474;-71
2022/12/17 17:06:22;;;;;;;83.55;47.95;;;6.60;81.50;;;;;;5020015;28;20024;-71
2022/12/17 17:08:48;;;;;;;76.72;46.85;;;6.50;82.00;;;;;;5026463;28;20021;-72
2022/12/17 17:11:20;;;;;;;80.25;47.42;;;6.30;82.50;;;;;;5021922;28;20025;-72
2022/12/17 17:13:47;;;;;;;75.18;45.25;;;6.10;83.40;;;;;;5023149;28;20497;-73
2022/12/17 17:16:12;;;;;;;78.20;45.60;;;5.90;83.80;;;;;;5029347;28;20408;-73
2022/12/17 17:18:38;;;;;;;69.97;42.35;;;6.10;84.00;;;;;;5024349;28;20048;-72
2022/12/17 17:21:20;;;;;;;74.60;45.47;;;6.30;83.40;;;;;;5016272;28;20025;-72
2022/12/17 17:23:55;;;;;;;66.50;42.63;;;6.40;83.50;;;;;;5017394;28;20037;-72
2022/12/17 17:26:20;;;;;;;70.72;41.70;;;6.30;83.70;;;;;;5023020;28;20048;-72
2022/12/17 17:28:47;;;;;;;67.93;41.30;;;6.30;84.20;;;;;;5029201;28;20095;-71
2022/12/17 17:31:15;;;;;;;68.95;42.05;;;6.40;84.20;;;;;;5020170;28;20128;-72
2022/12/17 17:33:45;;;;;;;68.32;43.15;;;6.40;84.60;;;;;;5022038;28;20036;-74
2022/12/17 17:36:13;;;;;;;65.95;40.92;;;6.50;84.10;;;;;;5021658;28;20029;-73
2022/12/17 17:38:40;;;;;;;62.15;39.60;;;6.50;84.00;;;;;;5020661;28;20064;-75
2022/12/17 17:41:08;;;;;;;71.07;45.33;;;6.60;83.80;;;;;;5022760;28;20022;-74
2022/12/17 17:43:35;;;;;;;68.30;40.85;;;6.60;83.60;;;;;;5026295;28;20526;-73
2022/12/17 17:46:10;;;;;;;61.20;38.88;;;6.50;82.70;;;;;;5030181;28;20029;-74
2022/12/17 17:48:36;;;;;;;59.20;39.25;;;6.10;83.80;;;;;;5016288;28;20018;-74
2022/12/17 17:51:14;;;;;;;62.22;38.30;;;5.90;84.20;;;;;;5022449;28;20060;-73
2022/12/17 17:53:40;;;;;;;58.75;37.80;;;5.90;84.30;;;;;;5028935;28;20048;-72
2022/12/17 17:56:15;;;;;;;58.50;38.55;;;5.90;84.60;;;;;;5027022;28;20052;-72
2022/12/17 17:58:55;;;;;;;64.57;39.80;;;5.70;85.10;;;;;;5014784;28;20710;-74
2022/12/17 18:01:29;;;;;;;64.53;39.53;;;5.80;85.00;;;;;;5022605;28;20154;-74
2022/12/17 18:03:57;;;;;;;62.10;39.10;;;5.90;84.70;;;;;;5026707;28;20017;-72
2022/12/17 18:06:23;;;;;;;63.78;38.70;;;5.80;84.70;;;;;;5019632;28;20084;-72
2022/12/17 18:08:49;;;;;;;63.83;40.08;;;5.80;85.20;;;;;;5015061;28;20247;-73
2022/12/17 18:11:17;;;;;;;61.38;38.70;;;5.80;85.10;;;;;;5017476;28;20090;-72
2022/12/17 18:13:55;;;;;;;59.47;36.92;;;5.80;85.10;;;;;;5021825;28;20081;-72
2022/12/17 18:16:27;;;;;;;60.90;39.45;;;5.70;85.20;;;;;;5016456;28;20112;-73
2022/12/17 18:18:55;;;;;;;62.13;37.40;;;5.70;85.40;;;;;;5019795;28;20061;-73
2022/12/17 18:21:24;;;;;;;60.83;38.67;;;5.80;85.30;;;;;;5022301;28;20083;-73
2022/12/17 18:24:04;;;;;;;66.45;38.83;;;6.00;84.50;;;;;;5021403;28;20025;-74
2022/12/17 18:26:36;;;;;;;64.32;37.30;;;5.80;85.30;;;;;;5016100;28;20125;-73
2022/12/17 18:29:07;;;;;;;61.55;37.88;;;5.90;85.50;;;;;;5022788;28;20076;-72
2022/12/17 18:31:32;;;;;;;60.33;38.13;;;6.10;84.80;;;;;;5020164;28;20033;-72
2022/12/17 18:34:01;;;;;;;62.80;37.80;;;6.10;85.00;;;;;;5019134;28;20494;-72
2022/12/17 18:36:36;;;;;;;62.03;38.13;;;6.30;84.90;;;;;;5020308;28;20455;-72
2022/12/17 18:39:07;;;;;;;59.15;37.20;;;6.30;84.80;;;;;;5028483;28;20033;-73
2022/12/17 18:44:18;;;;;;;58.05;36.30;;;6.40;84.20;;;;;;5016575;28;20064;-76
2022/12/17 18:46:44;;;;;;;59.08;36.83;;;6.50;84.00;;;;;;5017991;28;20033;-74
2022/12/17 18:49:13;;;;;;;60.80;36.63;;;6.50;84.00;;;;;;5024045;28;20052;-74
2022/12/17 18:51:42;;;;;;;57.63;35.78;;;6.50;84.00;;;;;;5027819;28;20025;-72
2022/12/17 18:54:15;;;;;;;55.63;35.13;;;6.00;85.70;;;;;;5027868;28;20014;-72
2022/12/17 18:56:41;;;;;;;54.45;34.88;;;5.90;85.60;;;;;;5027476;28;20029;-72
2022/12/17 18:59:07;;;;;;;59.78;36.22;;;6.30;84.90;;;;;;5029709;28;20526;-75
2022/12/17 19:01:36;;;;;;;58.38;36.30;;;6.50;83.70;;;;;;5027400;28;20096;-73
2022/12/17 19:04:03;;;;;;;57.65;37.28;;;6.50;83.90;;;;;;5031721;28;20033;-72
2022/12/17 19:06:31;;;;;;;61.45;38.55;;;6.50;83.90;;;;;;5018026;28;20034;-73
2022/12/17 19:08:57;;;;;;;60.15;38.58;;;6.60;83.90;;;;;;5014142;28;20041;-74
2022/12/17 19:11:23;;;;;;;61.45;37.05;;;6.60;82.90;;;;;;5021621;28;20719;-73
2022/12/17 19:13:49;;;;;;;60.53;36.13;;;6.60;82.70;;;;;;5022715;28;20030;-73
2022/12/17 19:16:18;;;;;;;55.83;34.13;;;6.60;83.10;;;;;;5018532;28;21448;-73
2022/12/17 19:18:44;;;;;;;54.67;35.25;;;6.50;83.00;;;;;;5014120;28;20026;-73
2022/12/17 19:21:13;;;;;;;54.78;33.83;;;6.30;84.40;;;;;;5018385;28;20037;-74
2022/12/17 19:23:39;;;;;;;52.72;33.55;;;6.10;85.70;;;;;;5018632;28;20041;-74
2022/12/17 19:26:13;;;;;;;56.70;33.25;;;5.80;86.20;;;;;;5018397;28;20030;-75
2022/12/17 19:28:40;;;;;;;55.53;34.05;;;6.00;85.50;;;;;;5014481;28;20030;-74
2022/12/17 19:31:07;;;;;;;48.50;30.85;;;5.90;85.90;;;;;;5016636;28;21198;-74
2022/12/17 19:33:33;;;;;;;51.22;31.48;;;5.70;86.60;;;;;;5018896;28;20164;-74
2022/12/17 19:36:04;;;;;;;61.13;32.53;;;5.60;87.00;;;;;;5028167;28;20052;-73
2022/12/17 19:38:30;;;;;;;53.33;32.65;;;6.00;86.30;;;;;;5032033;28;20021;-73
2022/12/17 19:40:55;;;;;;;54.33;33.28;;;6.10;85.30;;;;;;5033736;28;20070;-73
2022/12/17 19:43:21;;;;;;;52.22;32.03;;;6.20;85.60;;;;;;5024168;28;20033;-73
2022/12/17 19:45:46;;;;;;;52.75;31.17;;;6.50;84.50;;;;;;5027991;28;20080;-73
2022/12/17 19:48:15;;;;;;;53.05;31.55;;;6.40;84.60;;;;;;5028677;28;20042;-74
2022/12/17 19:50:41;;;;;;;49.40;31.38;;;6.50;84.30;;;;;;5032932;28;20022;-74
2022/12/17 19:53:07;;;;;;;52.05;31.60;;;6.50;83.80;;;;;;5021309;28;20596;-74
2022/12/17 19:55:33;;;;;;;54.63;31.92;;;6.70;82.40;;;;;;5035320;28;20502;-74
2022/12/17 19:57:58;;;;;;;53.83;32.30;;;6.60;82.30;;;;;;5032663;28;20020;-75
2022/12/17 20:00:24;;;;;;;51.15;32.20;;;6.40;82.60;;;;;;5030033;28;20417;-74
2022/12/17 20:02:50;;;;;;;55.42;32.90;;;6.30;84.00;;;;;;5033177;28;20033;-74
2022/12/17 20:05:16;;;;;;;54.58;30.88;;;6.30;84.70;;;;;;5030271;28;20037;-74
2022/12/17 20:07:41;;;;;;;54.75;31.92;;;6.30;84.40;;;;;;5028286;28;20026;-76
2022/12/17 20:10:07;;;;;;;51.60;29.52;;;6.40;84.30;;;;;;5031613;28;20029;-74
2022/12/17 20:12:33;;;;;;;52.58;32.13;;;6.40;83.90;;;;;;5031361;28;20443;-74
2022/12/17 20:14:58;;;;;;;53.88;33.70;;;6.30;84.30;;;;;;5031947;28;20045;-75
2022/12/17 20:17:24;;;;;;;55.97;33.85;;;6.60;83.20;;;;;;5022982;28;20028;-74
2022/12/17 20:19:52;;;;;;;58.72;34.47;;;6.50;82.40;;;;;;5033305;28;20025;-74
2022/12/17 20:22:18;;;;;;;54.67;35.90;;;6.40;82.60;;;;;;5026564;28;20017;-75
2022/12/17 20:24:44;;;;;;;64.22;38.08;;;6.30;83.90;;;;;;5031752;28;20061;-75
2022/12/17 20:27:09;;;;;;;52.58;32.20;;;6.30;83.60;;;;;;5028388;28;20051;-73
2022/12/17 20:29:35;;;;;;;47.90;29.73;;;6.40;83.50;;;;;;5023971;28;20025;-74
2022/12/17 20:32:03;;;;;;;47.20;29.85;;;6.40;84.00;;;;;;5030005;28;20028;-74
2022/12/17 20:34:28;;;;;;;48.95;30.02;;;6.40;83.90;;;;;;5020330;28;20121;-74
2022/12/17 20:36:54;;;;;;;52.83;31.67;;;6.40;84.30;;;;;;5023519;28;20097;-74
2022/12/17 20:39:20;;;;;;;51.67;31.75;;;6.40;84.30;;;;;;5030898;28;20473;-74
2022/12/17 20:41:45;;;;;;;54.53;31.95;;;6.50;83.80;;;;;;5020933;28;20021;-74
2022/12/17 20:44:14;;;;;;;54.47;32.10;;;6.50;82.60;;;;;;5024281;28;20037;-75
2022/12/17 20:46:41;;;;;;;54.78;32.10;;;6.40;82.80;;;;;;5018457;28;20017;-74
2022/12/17 20:49:07;;;;;;;56.95;32.63;;;6.40;82.80;;;;;;5024485;28;20017;-74
2022/12/17 20:51:34;;;;;;;60.22;35.50;;;6.20;83.30;;;;;;5031824;28;20030;-75
2022/12/17 20:54:01;;;;;;;59.78;34.83;;;6.20;83.10;;;;;;5027449;28;20025;-75
2022/12/17 20:56:30;;;;;;;53.45;33.15;;;6.10;84.00;;;;;;5022119;28;20030;-75
2022/12/17 20:58:58;;;;;;;59.08;36.03;;;6.30;83.10;;;;;;5025735;28;20109;-74
2022/12/17 21:01:30;;;;;;;55.03;32.70;;;6.20;83.30;;;;;;5025786;28;20394;-74
2022/12/17 21:03:57;;;;;;;57.13;34.08;;;6.20;83.10;;;;;;5022349;28;20041;-74
2022/12/17 21:06:28;;;;;;;66.80;39.45;;;6.10;83.00;;;;;;5024704;28;20446;-75
2022/12/17 21:08:54;;;;;;;65.70;38.40;;;6.00;83.40;;;;;;5017865;28;20021;-74
2022/12/17 21:11:22;;;;;;;56.53;35.22;;;6.00;84.10;;;;;;5016120;28;20377;-73
2022/12/17 21:13:48;;;;;;;57.90;33.63;;;6.10;84.00;;;;;;5019887;28;20065;-73
2022/12/17 21:16:17;;;;;;;68.82;38.65;;;6.20;84.00;;;;;;5013895;28;20048;-75
2022/12/17 21:18:43;;;;;;;69.00;41.33;;;6.20;83.70;;;;;;5024315;28;20052;-72
2022/12/17 21:21:16;;;;;;;72.13;41.75;;;6.30;82.30;;;;;;5017109;28;20068;-72
2022/12/17 21:23:42;;;;;;;61.00;35.28;;;6.30;82.20;;;;;;5017671;28;20028;-73
2022/12/17 21:26:13;;;;;;;51.65;31.35;;;6.20;82.60;;;;;;5014723;28;20113;-72
2022/12/17 21:28:41;;;;;;;65.30;37.10;;;6.10;83.50;;;;;;5024291;28;20022;-73
2022/12/17 21:31:18;;;;;;;62.42;37.28;;;6.10;83.50;;;;;;5024176;28;20022;-73
2022/12/17 21:33:46;;;;;;;65.53;38.03;;;5.80;84.00;;;;;;5023586;28;20105;-73
2022/12/17 21:36:12;;;;;;;64.53;37.05;;;5.90;84.40;;;;;;5023529;28;20025;-73
2022/12/17 21:38:38;;;;;;;64.30;34.90;;;6.20;83.20;;;;;;5024057;28;20022;-73
2022/12/17 21:41:09;;;;;;;60.30;34.42;;;6.20;82.50;;;;;;5021339;28;20351;-72
2022/12/17 21:43:35;;;;;;;53.67;32.28;;;6.10;82.40;;;;;;5026226;28;20446;-74
2022/12/17 21:46:02;;;;;;;59.15;34.53;;;6.00;82.80;;;;;;5021262;28;20033;-75
2022/12/17 21:48:28;;;;;;;56.45;32.85;;;6.00;83.00;;;;;;5014686;28;20048;-72
2022/12/17 21:50:55;;;;;;;55.75;32.63;;;5.90;83.20;;;;;;5028228;28;20032;-74
2022/12/17 21:53:21;;;;;;;56.65;32.45;;;5.80;83.10;;;;;;5019367;28;20034;-74
2022/12/17 21:55:47;;;;;;;52.28;33.15;;;5.80;83.20;;;;;;5020984;28;20022;-72
2022/12/17 21:58:14;;;;;;;63.47;38.42;;;5.80;83.30;;;;;;5022409;28;20045;-74
2022/12/17 22:00:40;;;;;;;61.83;36.92;;;5.70;82.90;;;;;;5025937;28;20013;-71
2022/12/17 22:03:06;;;;;;;69.55;39.58;;;5.60;83.10;;;;;;5022900;28;20025;-71
2022/12/17 22:05:34;;;;;;;58.50;33.50;;;5.50;83.20;;;;;;5016325;28;20033;-73
2022/12/17 22:07:59;;;;;;;67.07;37.63;;;5.60;83.10;;;;;;5027076;28;20048;-71
2022/12/17 22:10:25;;;;;;;65.32;36.28;;;5.50;83.30;;;;;;5025689;28;20545;-72
2022/12/17 22:15:38;;;;;;;56.15;30.85;;;5.50;83.70;;;;;;5021138;28;20091;-71
2022/12/17 22:18:04;;;;;;;49.53;29.50;;;5.50;83.90;;;;;;5030151;28;20044;-71
2022/12/17 22:20:30;;;;;;;52.25;30.60;;;5.60;83.40;;;;;;5030393;28;20026;-73
2022/12/17 22:22:55;;;;;;;49.25;31.05;;;5.70;82.60;;;;;;5030399;28;20037;-74
2022/12/17 22:25:21;;;;;;;55.95;32.20;;;5.70;82.90;;;;;;5021574;28;20045;-73
2022/12/17 22:27:47;;;;;;;52.25;30.23;;;5.80;82.40;;;;;;5021698;28;20025;-73
2022/12/17 22:33:01;;;;;;;58.45;33.67;;;5.60;82.00;;;;;;5013431;28;20060;-72
2022/12/17 22:35:36;;;;;;;52.80;32.60;;;5.70;82.10;;;;;;5023807;28;20025;-71
2022/12/17 22:38:03;;;;;;;52.40;29.13;;;5.50;82.50;;;;;;5022149;28;20029;-73
2022/12/17 22:40:31;;;;;;;47.30;28.33;;;5.30;82.80;;;;;;5029891;28;20031;-72
2022/12/17 22:45:41;;;;;;;42.45;26.90;;;5.10;83.70;;;;;;5029408;28;20180;-71
2022/12/17 22:48:10;;;;;;;45.38;26.15;;;5.10;83.60;;;;;;5020214;28;20104;-72
2022/12/17 22:50:36;;;;;;;47.42;27.73;;;5.20;83.60;;;;;;5015217;28;20025;-71
2022/12/17 22:53:02;;;;;;;48.03;29.33;;;5.10;83.70;;;;;;5018727;28;20028;-71
2022/12/17 22:55:29;;;;;;;47.85;26.48;;;5.10;83.70;;;;;;5027047;28;20022;-71
2022/12/17 22:57:55;;;;;;;48.33;27.73;;;5.00;84.10;;;;;;5031175;28;20064;-71
2022/12/17 23:00:23;;;;;;;51.80;29.25;;;4.90;84.40;;;;;;5024735;28;20049;-71
2022/12/17 23:02:52;;;;;;;50.85;27.95;;;4.90;84.40;;;;;;5027689;28;20536;-72
2022/12/17 23:05:19;;;;;;;47.47;28.40;;;5.00;84.10;;;;;;5024204;28;20057;-69
2022/12/17 23:07:44;;;;;;;45.17;27.80;;;5.30;83.30;;;;;;5017029;28;20065;-71
2022/12/17 23:10:10;;;;;;;51.25;28.08;;;5.40;82.90;;;;;;5029882;28;20037;-72
2022/12/17 23:12:51;;;;;;;54.05;29.92;;;5.30;83.10;;;;;;5032577;28;20033;-71
2022/12/17 23:15:35;;;;;;;51.50;29.10;;;5.40;83.10;;;;;;5036798;28;20079;-71
2022/12/17 23:18:02;;;;;;;52.25;30.38;;;5.40;83.00;;;;;;5031584;28;20018;-71
2022/12/17 23:20:33;;;;;;;55.35;29.27;;;5.40;83.10;;;;;;5026098;28;20029;-71
2022/12/17 23:22:59;;;;;;;57.90;31.13;;;5.40;82.70;;;;;;5047771;28;20068;-71
2022/12/17 23:25:25;;;;;;;60.30;31.02;;;5.40;82.80;;;;;;5024346;28;20049;-73
2022/12/17 23:27:51;;;;;;;62.15;32.42;;;5.40;82.50;;;;;;5031297;28;20032;-70
2022/12/17 23:30:18;;;;;;;65.25;31.85;;;5.50;82.40;;;;;;5036059;28;20033;-70
2022/12/17 23:32:44;;;;;;;60.72;30.60;;;5.50;82.30;;;;;;5026902;28;20089;-70
2022/12/17 23:35:10;;;;;;;64.18;30.77;;;5.50;82.10;;;;;;5032706;28;20505;-70
2022/12/17 23:37:36;;;;;;;65.65;32.80;;;5.50;82.40;;;;;;5031638;28;20533;-71
2022/12/17 23:40:03;;;;;;;69.82;33.78;;;5.50;82.30;;;;;;5030125;28;20048;-70
2022/12/17 23:42:29;;;;;;;73.50;33.28;;;5.50;82.80;;;;;;5024562;28;20737;-70
2022/12/17 23:44:54;;;;;;;78.45;35.70;;;5.40;82.80;;;;;;5035690;28;20112;-70
2022/12/17 23:47:20;;;;;;;77.60;35.40;;;5.40;82.30;;;;;;5035509;28;20075;-70
2022/12/17 23:49:45;;;;;;;76.82;35.60;;;5.50;81.90;;;;;;5035872;28;20013;-70
2022/12/17 23:52:11;;;;;;;70.75;35.90;;;5.40;81.90;;;;;;5035917;28;20029;-70
2022/12/17 23:54:36;;;;;;;78.38;35.47;;;5.40;82.00;;;;;;5035726;28;20022;-70
2022/12/17 23:57:02;;;;;;;70.57;34.80;;;5.40;82.10;;;;;;5036041;28;20033;-70
2022/12/17 23:59:27;;;;;;;64.10;33.88;;;5.40;81.70;;;;;;5035838;28;20101;-70
